sensor_id;sensor_type;location;lat;lon;timestamp;temperature;humidity
62339;DHT22;48368;53.406;6.214;2024-01-15T00:00:42;4.10;99.90
62339;DHT22;48368;53.406;6.214;2024-01-15T00:03:08;4.20;99.90
62339;DHT22;48368;53.406;6.214;2024-01-15T00:05:36;4.20;99.90
62339;DHT22;48368;53.406;6.214;2024-01-15T00:08:02;4.10;99.90
62339;DHT22;48368;53.406;6.214;2024-01-15T00:10:31;4.10;99.90
62339;DHT22;48368;53.406;6.214;2024-01-15T00:12:57;4.00;99.90
62339;DHT22;48368;53.406;6.214;2024-01-15T00:15:22;4.00;99.90
62339;DHT22;48368;53.406;6.214;2024-01-15T00:17:48;4.00;99.90
62339;DHT22;48368;53.406;6.214;2024-01-15T00:20:13;4.00;99.90
62339;DHT22;48368;53.406;6.214;2024-01-15T00:22:39;4.00;99.90
62339;DHT22;48368;53.406;6.214;2024-01-15T00:25:05;4.10;99.90
62339;DHT22;48368;53.406;6.214;2024-01-15T00:27:30;4.10;99.90
62339;DHT22;48368;53.406;6.214;2024-01-15T00:29:56;4.20;99.90
62339;DHT22;48368;53.406;6.214;2024-01-15T00:32:22;4.20;99.90
62339;DHT22;48368;53.406;6.214;2024-01-15T00:34:47;4.20;99.90
62339;DHT22;48368;53.406;6.214;2024-01-15T00:37:13;4.10;99.90
62339;DHT22;48368;53.406;6.214;2024-01-15T00:39:39;4.10;99.90
62339;DHT22;48368;53.406;6.214;2024-01-15T00:42:04;4.10;99.90
62339;DHT22;48368;53.406;6.214;2024-01-15T00:44:30;4.10;99.90
62339;DHT22;48368;53.406;6.214;2024-01-15T00:46:56;4.00;99.90
62339;DHT22;48368;53.406;6.214;2024-01-15T00:49:21;4.10;99.90
62339;DHT22;48368;53.406;6.214;2024-01-15T00:51:47;4.10;99.90
62339;DHT22;48368;53.406;6.214;2024-01-15T00:54:13;4.20;99.90
62339;DHT22;48368;53.406;6.214;2024-01-15T00:56:38;4.20;99.90
62339;DHT22;48368;53.406;6.214;2024-01-15T00:59:04;4.20;99.90
62339;DHT22;48368;53.406;6.214;2024-01-15T01:01:30;4.30;99.90
62339;DHT22;48368;53.406;6.214;2024-01-15T01:03:58;4.30;99.90
62339;DHT22;48368;53.406;6.214;2024-01-15T01:06:25;4.40;99.90
62339;DHT22;48368;53.406;6.214;2024-01-15T01:08:51;4.50;99.90
62339;DHT22;48368;53.406;6.214;2024-01-15T01:11:16;4.60;99.90
62339;DHT22;48368;53.406;6.214;2024-01-15T01:13:42;4.60;99.90
62339;DHT22;48368;53.406;6.214;2024-01-15T01:16:08;4.60;99.90
62339;DHT22;48368;53.406;6.214;2024-01-15T01:18:34;4.70;99.90
62339;DHT22;48368;53.406;6.214;2024-01-15T01:21:00;4.70;99.90
62339;DHT22;48368;53.406;6.214;2024-01-15T01:23:26;4.70;99.90
62339;DHT22;48368;53.406;6.214;2024-01-15T01:25:51;4.70;99.90
62339;DHT22;48368;53.406;6.214;2024-01-15T01:28:17;4.70;99.90
62339;DHT22;48368;53.406;6.214;2024-01-15T01:30:43;4.70;99.90
62339;DHT22;48368;53.406;6.214;2024-01-15T01:33:08;4.70;99.90
62339;DHT22;48368;53.406;6.214;2024-01-15T01:35:34;4.80;99.90
62339;DHT22;48368;53.406;6.214;2024-01-15T01:38:03;4.80;99.90
62339;DHT22;48368;53.406;6.214;2024-01-15T01:40:28;4.90;99.90
62339;DHT22;48368;53.406;6.214;2024-01-15T01:42:54;4.90;99.90
62339;DHT22;48368;53.406;6.214;2024-01-15T01:45:20;4.90;99.90
62339;DHT22;48368;53.406;6.214;2024-01-15T01:47:45;4.90;99.90
62339;DHT22;48368;53.406;6.214;2024-01-15T01:50:12;4.90;99.90
62339;DHT22;48368;53.406;6.214;2024-01-15T01:52:38;4.90;99.90
62339;DHT22;48368;53.406;6.214;2024-01-15T01:55:04;4.90;99.90
62339;DHT22;48368;53.406;6.214;2024-01-15T01:57:33;4.90;99.90
62339;DHT22;48368;53.406;6.214;2024-01-15T02:00:01;4.90;99.90
62339;DHT22;48368;53.406;6.214;2024-01-15T02:02:27;5.00;99.90
62339;DHT22;48368;53.406;6.214;2024-01-15T02:04:52;5.00;99.90
62339;DHT22;48368;53.406;6.214;2024-01-15T02:07:19;4.90;99.90
62339;DHT22;48368;53.406;6.214;2024-01-15T02:09:45;4.80;99.90
62339;DHT22;48368;53.406;6.214;2024-01-15T02:12:10;4.70;99.90
62339;DHT22;48368;53.406;6.214;2024-01-15T02:14:36;4.60;99.90
62339;DHT22;48368;53.406;6.214;2024-01-15T02:17:02;4.50;99.90
62339;DHT22;48368;53.406;6.214;2024-01-15T02:19:28;4.40;99.90
62339;DHT22;48368;53.406;6.214;2024-01-15T02:21:53;4.40;99.90
62339;DHT22;48368;53.406;6.214;2024-01-15T02:24:19;4.40;99.90
62339;DHT22;48368;53.406;6.214;2024-01-15T02:26:45;4.40;99.90
62339;DHT22;48368;53.406;6.214;2024-01-15T02:29:11;4.30;99.90
62339;DHT22;48368;53.406;6.214;2024-01-15T02:31:40;4.20;99.90
62339;DHT22;48368;53.406;6.214;2024-01-15T02:34:06;4.20;99.90
62339;DHT22;48368;53.406;6.214;2024-01-15T02:36:31;4.20;99.90
62339;DHT22;48368;53.406;6.214;2024-01-15T02:38:57;4.20;99.90
62339;DHT22;48368;53.406;6.214;2024-01-15T02:41:23;4.30;99.90
62339;DHT22;48368;53.406;6.214;2024-01-15T02:43:48;4.30;99.90
62339;DHT22;48368;53.406;6.214;2024-01-15T02:46:14;4.30;99.90
62339;DHT22;48368;53.406;6.214;2024-01-15T02:48:41;4.30;99.90
62339;DHT22;48368;53.406;6.214;2024-01-15T02:51:07;4.40;99.90
62339;DHT22;48368;53.406;6.214;2024-01-15T02:53:33;4.50;99.90
62339;DHT22;48368;53.406;6.214;2024-01-15T02:55:58;4.50;99.90
62339;DHT22;48368;53.406;6.214;2024-01-15T02:58:26;4.60;99.90
62339;DHT22;48368;53.406;6.214;2024-01-15T03:00:52;4.60;99.90
62339;DHT22;48368;53.406;6.214;2024-01-15T03:03:18;4.60;99.90
62339;DHT22;48368;53.406;6.214;2024-01-15T03:05:43;4.70;99.90
62339;DHT22;48368;53.406;6.214;2024-01-15T03:08:10;4.70;99.90
62339;DHT22;48368;53.406;6.214;2024-01-15T03:10:37;4.70;99.90
62339;DHT22;48368;53.406;6.214;2024-01-15T03:13:02;4.70;99.90
62339;DHT22;48368;53.406;6.214;2024-01-15T03:15:31;4.70;99.90
62339;DHT22;48368;53.406;6.214;2024-01-15T03:17:56;4.70;99.90
62339;DHT22;48368;53.406;6.214;2024-01-15T03:20:22;4.70;99.90
62339;DHT22;48368;53.406;6.214;2024-01-15T03:22:48;4.70;99.90
62339;DHT22;48368;53.406;6.214;2024-01-15T03:25:14;4.70;99.90
62339;DHT22;48368;53.406;6.214;2024-01-15T03:27:40;4.70;99.90
62339;DHT22;48368;53.406;6.214;2024-01-15T03:30:06;4.80;99.90
62339;DHT22;48368;53.406;6.214;2024-01-15T03:32:32;4.80;99.90
62339;DHT22;48368;53.406;6.214;2024-01-15T03:34:57;4.70;99.90
62339;DHT22;48368;53.406;6.214;2024-01-15T03:37:23;4.70;99.90
62339;DHT22;48368;53.406;6.214;2024-01-15T03:39:48;4.70;99.90
62339;DHT22;48368;53.406;6.214;2024-01-15T03:42:14;4.60;99.90
62339;DHT22;48368;53.406;6.214;2024-01-15T03:44:40;4.50;99.90
62339;DHT22;48368;53.406;6.214;2024-01-15T03:47:08;4.50;99.90
62339;DHT22;48368;53.406;6.214;2024-01-15T03:49:34;4.60;99.90
62339;DHT22;48368;53.406;6.214;2024-01-15T03:51:59;4.60;99.90
62339;DHT22;48368;53.406;6.214;2024-01-15T03:54:25;4.50;99.90
62339;DHT22;48368;53.406;6.214;2024-01-15T03:56:52;4.40;99.90
62339;DHT22;48368;53.406;6.214;2024-01-15T03:59:17;4.30;99.90
62339;DHT22;48368;53.406;6.214;2024-01-15T04:01:49;4.30;99.90
62339;DHT22;48368;53.406;6.214;2024-01-15T04:04:15;4.20;99.90
62339;DHT22;48368;53.406;6.214;2024-01-15T04:06:42;4.20;99.90
62339;DHT22;48368;53.406;6.214;2024-01-15T04:09:07;4.10;99.90
62339;DHT22;48368;53.406;6.214;2024-01-15T04:11:33;4.10;99.90
62339;DHT22;48368;53.406;6.214;2024-01-15T04:13:58;4.10;99.90
62339;DHT22;48368;53.406;6.214;2024-01-15T04:16:24;4.10;99.90
62339;DHT22;48368;53.406;6.214;2024-01-15T04:18:50;4.10;99.90
62339;DHT22;48368;53.406;6.214;2024-01-15T04:21:17;4.00;99.90
62339;DHT22;48368;53.406;6.214;2024-01-15T04:23:43;4.00;99.90
62339;DHT22;48368;53.406;6.214;2024-01-15T04:26:09;4.10;99.90
62339;DHT22;48368;53.406;6.214;2024-01-15T04:28:35;4.10;99.90
62339;DHT22;48368;53.406;6.214;2024-01-15T04:31:00;4.10;99.90
62339;DHT22;48368;53.406;6.214;2024-01-15T04:33:26;4.10;99.90
62339;DHT22;48368;53.406;6.214;2024-01-15T04:35:52;4.20;99.90
62339;DHT22;48368;53.406;6.214;2024-01-15T04:38:17;4.20;99.90
62339;DHT22;48368;53.406;6.214;2024-01-15T04:40:43;4.20;99.90
62339;DHT22;48368;53.406;6.214;2024-01-15T04:43:11;4.30;99.90
62339;DHT22;48368;53.406;6.214;2024-01-15T04:45:37;4.30;99.90
62339;DHT22;48368;53.406;6.214;2024-01-15T04:48:03;4.30;99.90
62339;DHT22;48368;53.406;6.214;2024-01-15T04:50:28;4.30;99.90
62339;DHT22;48368;53.406;6.214;2024-01-15T04:52:54;4.20;99.90
62339;DHT22;48368;53.406;6.214;2024-01-15T04:55:20;4.20;99.90
62339;DHT22;48368;53.406;6.214;2024-01-15T04:57:45;4.20;99.90
62339;DHT22;48368;53.406;6.214;2024-01-15T05:00:14;4.20;99.90
62339;DHT22;48368;53.406;6.214;2024-01-15T05:02:40;4.20;99.90
62339;DHT22;48368;53.406;6.214;2024-01-15T05:05:06;4.20;99.90
62339;DHT22;48368;53.406;6.214;2024-01-15T05:07:36;4.20;99.90
62339;DHT22;48368;53.406;6.214;2024-01-15T05:10:02;4.20;99.90
62339;DHT22;48368;53.406;6.214;2024-01-15T05:12:28;4.20;99.90
62339;DHT22;48368;53.406;6.214;2024-01-15T05:14:54;4.20;99.90
62339;DHT22;48368;53.406;6.214;2024-01-15T05:17:20;4.30;99.90
62339;DHT22;48368;53.406;6.214;2024-01-15T05:19:45;4.30;99.90
62339;DHT22;48368;53.406;6.214;2024-01-15T05:22:11;4.30;99.90
62339;DHT22;48368;53.406;6.214;2024-01-15T05:24:36;4.20;99.90
62339;DHT22;48368;53.406;6.214;2024-01-15T05:27:02;4.30;99.90
62339;DHT22;48368;53.406;6.214;2024-01-15T05:29:28;4.30;99.90
62339;DHT22;48368;53.406;6.214;2024-01-15T05:31:53;4.30;99.90
62339;DHT22;48368;53.406;6.214;2024-01-15T05:34:19;4.30;99.90
62339;DHT22;48368;53.406;6.214;2024-01-15T05:36:45;4.20;99.90
62339;DHT22;48368;53.406;6.214;2024-01-15T05:39:13;4.10;99.90
62339;DHT22;48368;53.406;6.214;2024-01-15T05:41:38;4.00;99.90
62339;DHT22;48368;53.406;6.214;2024-01-15T05:44:07;4.00;99.90
62339;DHT22;48368;53.406;6.214;2024-01-15T05:46:32;3.90;99.90
62339;DHT22;48368;53.406;6.214;2024-01-15T05:48:58;3.90;99.90
62339;DHT22;48368;53.406;6.214;2024-01-15T05:51:24;3.90;99.90
62339;DHT22;48368;53.406;6.214;2024-01-15T05:53:49;4.00;99.90
62339;DHT22;48368;53.406;6.214;2024-01-15T05:56:15;3.90;99.90
62339;DHT22;48368;53.406;6.214;2024-01-15T05:58:41;3.90;99.90
62339;DHT22;48368;53.406;6.214;2024-01-15T06:01:07;3.90;99.90
62339;DHT22;48368;53.406;6.214;2024-01-15T06:03:32;3.90;99.90
62339;DHT22;48368;53.406;6.214;2024-01-15T06:05:58;4.00;99.90
62339;DHT22;48368;53.406;6.214;2024-01-15T06:08:24;4.00;99.90
62339;DHT22;48368;53.406;6.214;2024-01-15T06:10:52;4.00;99.90
62339;DHT22;48368;53.406;6.214;2024-01-15T06:13:17;3.80;99.90
62339;DHT22;48368;53.406;6.214;2024-01-15T06:15:43;3.60;99.90
62339;DHT22;48368;53.406;6.214;2024-01-15T06:18:08;3.60;99.90
62339;DHT22;48368;53.406;6.214;2024-01-15T06:20:34;3.50;99.90
62339;DHT22;48368;53.406;6.214;2024-01-15T06:23:00;3.60;99.90
62339;DHT22;48368;53.406;6.214;2024-01-15T06:25:25;3.70;99.90
62339;DHT22;48368;53.406;6.214;2024-01-15T06:27:51;3.80;99.90
62339;DHT22;48368;53.406;6.214;2024-01-15T06:30:16;3.80;99.90
62339;DHT22;48368;53.406;6.214;2024-01-15T06:32:42;3.80;99.90
62339;DHT22;48368;53.406;6.214;2024-01-15T06:35:08;3.80;99.90
62339;DHT22;48368;53.406;6.214;2024-01-15T06:37:35;3.70;99.90
62339;DHT22;48368;53.406;6.214;2024-01-15T06:40:04;3.70;99.90
62339;DHT22;48368;53.406;6.214;2024-01-15T06:42:31;3.60;99.90
62339;DHT22;48368;53.406;6.214;2024-01-15T06:44:56;3.60;99.90
62339;DHT22;48368;53.406;6.214;2024-01-15T06:47:22;3.50;99.90
62339;DHT22;48368;53.406;6.214;2024-01-15T06:49:47;3.40;99.90
62339;DHT22;48368;53.406;6.214;2024-01-15T06:52:13;3.10;99.90
62339;DHT22;48368;53.406;6.214;2024-01-15T06:54:39;3.10;99.90
62339;DHT22;48368;53.406;6.214;2024-01-15T06:57:05;3.10;99.90
62339;DHT22;48368;53.406;6.214;2024-01-15T06:59:32;3.00;99.90
62339;DHT22;48368;53.406;6.214;2024-01-15T07:01:58;3.00;99.90
62339;DHT22;48368;53.406;6.214;2024-01-15T07:04:24;2.90;99.90
62339;DHT22;48368;53.406;6.214;2024-01-15T07:06:50;2.90;99.90
62339;DHT22;48368;53.406;6.214;2024-01-15T07:09:16;2.80;99.90
62339;DHT22;48368;53.406;6.214;2024-01-15T07:11:46;2.70;99.90
62339;DHT22;48368;53.406;6.214;2024-01-15T07:14:14;2.70;99.90
62339;DHT22;48368;53.406;6.214;2024-01-15T07:16:42;2.70;99.90
62339;DHT22;48368;53.406;6.214;2024-01-15T07:19:08;2.60;99.90
62339;DHT22;48368;53.406;6.214;2024-01-15T07:21:33;2.70;99.90
62339;DHT22;48368;53.406;6.214;2024-01-15T07:23:59;2.90;99.90
62339;DHT22;48368;53.406;6.214;2024-01-15T07:26:25;2.90;99.90
62339;DHT22;48368;53.406;6.214;2024-01-15T07:28:51;3.00;99.90
62339;DHT22;48368;53.406;6.214;2024-01-15T07:31:17;3.00;99.90
62339;DHT22;48368;53.406;6.214;2024-01-15T07:33:43;3.10;99.90
62339;DHT22;48368;53.406;6.214;2024-01-15T07:36:08;3.10;99.90
62339;DHT22;48368;53.406;6.214;2024-01-15T07:38:34;3.20;99.90
62339;DHT22;48368;53.406;6.214;2024-01-15T07:41:00;3.20;99.90
62339;DHT22;48368;53.406;6.214;2024-01-15T07:43:26;3.20;99.90
62339;DHT22;48368;53.406;6.214;2024-01-15T07:45:53;3.30;99.90
62339;DHT22;48368;53.406;6.214;2024-01-15T07:48:18;3.40;99.90
62339;DHT22;48368;53.406;6.214;2024-01-15T07:50:44;3.30;99.90
62339;DHT22;48368;53.406;6.214;2024-01-15T07:53:10;3.30;99.90
62339;DHT22;48368;53.406;6.214;2024-01-15T07:55:35;3.20;99.90
62339;DHT22;48368;53.406;6.214;2024-01-15T07:58:01;3.10;99.90
62339;DHT22;48368;53.406;6.214;2024-01-15T08:00:27;3.10;99.90
62339;DHT22;48368;53.406;6.214;2024-01-15T08:02:53;3.10;99.90
62339;DHT22;48368;53.406;6.214;2024-01-15T08:05:18;3.10;99.90
62339;DHT22;48368;53.406;6.214;2024-01-15T08:07:45;3.10;99.90
62339;DHT22;48368;53.406;6.214;2024-01-15T08:10:11;3.10;99.90
62339;DHT22;48368;53.406;6.214;2024-01-15T08:12:39;3.10;99.90
62339;DHT22;48368;53.406;6.214;2024-01-15T08:15:05;3.10;99.90
62339;DHT22;48368;53.406;6.214;2024-01-15T08:17:31;3.10;99.90
62339;DHT22;48368;53.406;6.214;2024-01-15T08:19:57;3.10;99.90
62339;DHT22;48368;53.406;6.214;2024-01-15T08:22:23;3.10;99.90
62339;DHT22;48368;53.406;6.214;2024-01-15T08:24:52;3.00;99.90
62339;DHT22;48368;53.406;6.214;2024-01-15T08:27:18;3.00;99.90
62339;DHT22;48368;53.406;6.214;2024-01-15T08:29:45;2.90;99.90
62339;DHT22;48368;53.406;6.214;2024-01-15T08:32:11;2.80;99.90
62339;DHT22;48368;53.406;6.214;2024-01-15T08:34:39;2.80;99.90
62339;DHT22;48368;53.406;6.214;2024-01-15T08:37:05;2.80;99.90
62339;DHT22;48368;53.406;6.214;2024-01-15T08:39:31;2.80;99.90
62339;DHT22;48368;53.406;6.214;2024-01-15T08:41:59;2.80;99.90
62339;DHT22;48368;53.406;6.214;2024-01-15T08:44:24;2.80;99.90
62339;DHT22;48368;53.406;6.214;2024-01-15T08:46:50;2.90;99.90
62339;DHT22;48368;53.406;6.214;2024-01-15T08:49:16;3.00;99.90
62339;DHT22;48368;53.406;6.214;2024-01-15T08:51:41;3.00;99.90
62339;DHT22;48368;53.406;6.214;2024-01-15T08:54:07;3.10;99.90
62339;DHT22;48368;53.406;6.214;2024-01-15T08:56:34;3.10;99.90
62339;DHT22;48368;53.406;6.214;2024-01-15T08:58:59;3.10;99.90
62339;DHT22;48368;53.406;6.214;2024-01-15T09:01:25;3.10;99.90
62339;DHT22;48368;53.406;6.214;2024-01-15T09:03:51;3.00;99.90
62339;DHT22;48368;53.406;6.214;2024-01-15T09:06:16;3.10;99.90
62339;DHT22;48368;53.406;6.214;2024-01-15T09:08:42;3.10;99.90
62339;DHT22;48368;53.406;6.214;2024-01-15T09:11:08;3.20;99.90
62339;DHT22;48368;53.406;6.214;2024-01-15T09:13:33;3.30;99.90
62339;DHT22;48368;53.406;6.214;2024-01-15T09:15:59;3.40;99.90
62339;DHT22;48368;53.406;6.214;2024-01-15T09:18:25;3.40;99.90
62339;DHT22;48368;53.406;6.214;2024-01-15T09:20:53;3.50;99.90
62339;DHT22;48368;53.406;6.214;2024-01-15T09:23:19;3.60;99.90
62339;DHT22;48368;53.406;6.214;2024-01-15T09:25:45;3.60;99.90
62339;DHT22;48368;53.406;6.214;2024-01-15T09:28:10;3.60;99.90
62339;DHT22;48368;53.406;6.214;2024-01-15T09:30:36;3.40;99.90
62339;DHT22;48368;53.406;6.214;2024-01-15T09:33:02;3.30;99.90
62339;DHT22;48368;53.406;6.214;2024-01-15T09:35:27;3.20;99.90
62339;DHT22;48368;53.406;6.214;2024-01-15T09:37:53;3.10;99.90
62339;DHT22;48368;53.406;6.214;2024-01-15T09:40:20;3.20;99.90
62339;DHT22;48368;53.406;6.214;2024-01-15T09:42:46;3.30;99.90
62339;DHT22;48368;53.406;6.214;2024-01-15T09:45:12;3.20;99.90
62339;DHT22;48368;53.406;6.214;2024-01-15T09:47:38;3.10;99.90
62339;DHT22;48368;53.406;6.214;2024-01-15T09:50:05;3.00;99.90
62339;DHT22;48368;53.406;6.214;2024-01-15T09:52:31;3.10;99.90
62339;DHT22;48368;53.406;6.214;2024-01-15T09:54:58;3.10;99.90
62339;DHT22;48368;53.406;6.214;2024-01-15T09:57:24;3.20;99.90
62339;DHT22;48368;53.406;6.214;2024-01-15T09:59:52;3.30;99.90
62339;DHT22;48368;53.406;6.214;2024-01-15T10:02:19;3.30;99.90
62339;DHT22;48368;53.406;6.214;2024-01-15T10:04:45;3.40;99.90
62339;DHT22;48368;53.406;6.214;2024-01-15T10:07:16;3.40;99.90
62339;DHT22;48368;53.406;6.214;2024-01-15T10:09:46;3.50;99.90
62339;DHT22;48368;53.406;6.214;2024-01-15T10:12:12;3.60;99.90
62339;DHT22;48368;53.406;6.214;2024-01-15T10:14:38;3.80;99.90
62339;DHT22;48368;53.406;6.214;2024-01-15T10:17:14;3.90;99.90
62339;DHT22;48368;53.406;6.214;2024-01-15T10:19:40;3.90;99.90
62339;DHT22;48368;53.406;6.214;2024-01-15T10:22:08;4.00;99.90
62339;DHT22;48368;53.406;6.214;2024-01-15T10:24:37;4.00;99.90
62339;DHT22;48368;53.406;6.214;2024-01-15T10:27:09;3.90;99.90
62339;DHT22;48368;53.406;6.214;2024-01-15T10:29:35;3.80;99.90
62339;DHT22;48368;53.406;6.214;2024-01-15T10:32:02;3.70;99.90
62339;DHT22;48368;53.406;6.214;2024-01-15T10:34:28;3.70;99.90
62339;DHT22;48368;53.406;6.214;2024-01-15T10:36:54;3.70;99.90
62339;DHT22;48368;53.406;6.214;2024-01-15T10:39:23;3.70;99.90
62339;DHT22;48368;53.406;6.214;2024-01-15T10:41:49;3.50;99.90
62339;DHT22;48368;53.406;6.214;2024-01-15T10:44:16;3.40;99.90
62339;DHT22;48368;53.406;6.214;2024-01-15T10:46:43;3.40;99.90
62339;DHT22;48368;53.406;6.214;2024-01-15T10:49:09;3.30;99.90
62339;DHT22;48368;53.406;6.214;2024-01-15T10:51:36;3.40;99.90
62339;DHT22;48368;53.406;6.214;2024-01-15T10:54:02;3.40;99.90
62339;DHT22;48368;53.406;6.214;2024-01-15T10:56:30;3.40;99.90
62339;DHT22;48368;53.406;6.214;2024-01-15T10:58:57;3.40;99.90
62339;DHT22;48368;53.406;6.214;2024-01-15T11:01:23;3.30;99.90
62339;DHT22;48368;53.406;6.214;2024-01-15T11:03:49;3.30;99.90
62339;DHT22;48368;53.406;6.214;2024-01-15T11:06:19;3.30;99.90
62339;DHT22;48368;53.406;6.214;2024-01-15T11:08:50;3.30;99.90
62339;DHT22;48368;53.406;6.214;2024-01-15T11:11:17;3.40;99.90
62339;DHT22;48368;53.406;6.214;2024-01-15T11:13:43;3.50;99.90
62339;DHT22;48368;53.406;6.214;2024-01-15T11:16:13;3.50;99.90
62339;DHT22;48368;53.406;6.214;2024-01-15T11:18:41;3.50;99.90
62339;DHT22;48368;53.406;6.214;2024-01-15T11:23:45;3.30;99.90
62339;DHT22;48368;53.406;6.214;2024-01-15T11:26:31;3.20;99.90
62339;DHT22;48368;53.406;6.214;2024-01-15T11:28:58;3.10;99.90
62339;DHT22;48368;53.406;6.214;2024-01-15T11:32:08;3.20;99.90
62339;DHT22;48368;53.406;6.214;2024-01-15T11:34:15;3.20;99.90
62339;DHT22;48368;53.406;6.214;2024-01-15T11:42:01;3.30;99.90
62339;DHT22;48368;53.406;6.214;2024-01-15T11:44:27;3.30;99.90
62339;DHT22;48368;53.406;6.214;2024-01-15T11:52:16;3.50;99.90
62339;DHT22;48368;53.406;6.214;2024-01-15T11:54:47;3.50;99.90
62339;DHT22;48368;53.406;6.214;2024-01-15T11:57:25;3.60;99.90
62339;DHT22;48368;53.406;6.214;2024-01-15T11:59:56;3.60;99.90
62339;DHT22;48368;53.406;6.214;2024-01-15T12:02:24;3.60;99.90
62339;DHT22;48368;53.406;6.214;2024-01-15T12:04:50;3.70;99.90
62339;DHT22;48368;53.406;6.214;2024-01-15T12:07:15;3.80;99.90
62339;DHT22;48368;53.406;6.214;2024-01-15T12:09:44;3.80;99.90
62339;DHT22;48368;53.406;6.214;2024-01-15T12:12:13;3.90;99.90
62339;DHT22;48368;53.406;6.214;2024-01-15T12:14:41;3.90;99.90
62339;DHT22;48368;53.406;6.214;2024-01-15T12:17:06;3.90;99.90
62339;DHT22;48368;53.406;6.214;2024-01-15T12:19:32;3.90;99.90
62339;DHT22;48368;53.406;6.214;2024-01-15T12:21:57;4.00;99.90
62339;DHT22;48368;53.406;6.214;2024-01-15T12:24:23;4.00;99.90
62339;DHT22;48368;53.406;6.214;2024-01-15T12:26:49;4.10;99.90
62339;DHT22;48368;53.406;6.214;2024-01-15T12:29:17;4.00;99.90
62339;DHT22;48368;53.406;6.214;2024-01-15T12:31:46;4.10;99.90
62339;DHT22;48368;53.406;6.214;2024-01-15T12:34:11;4.10;99.90
62339;DHT22;48368;53.406;6.214;2024-01-15T12:36:37;4.20;99.90
62339;DHT22;48368;53.406;6.214;2024-01-15T12:39:03;4.10;99.90
62339;DHT22;48368;53.406;6.214;2024-01-15T12:41:28;4.10;99.90
62339;DHT22;48368;53.406;6.214;2024-01-15T12:43:54;4.20;99.90
62339;DHT22;48368;53.406;6.214;2024-01-15T12:46:19;4.20;99.90
62339;DHT22;48368;53.406;6.214;2024-01-15T12:48:45;4.20;99.90
62339;DHT22;48368;53.406;6.214;2024-01-15T12:51:11;4.20;99.90
62339;DHT22;48368;53.406;6.214;2024-01-15T12:53:36;4.20;99.90
62339;DHT22;48368;53.406;6.214;2024-01-15T12:56:05;4.10;99.90
62339;DHT22;48368;53.406;6.214;2024-01-15T12:58:31;4.10;99.90
62339;DHT22;48368;53.406;6.214;2024-01-15T13:00:56;4.00;99.90
62339;DHT22;48368;53.406;6.214;2024-01-15T13:03:23;4.10;99.90
62339;DHT22;48368;53.406;6.214;2024-01-15T13:05:51;4.20;99.90
62339;DHT22;48368;53.406;6.214;2024-01-15T13:08:18;4.30;99.90
62339;DHT22;48368;53.406;6.214;2024-01-15T13:10:45;4.30;99.90
62339;DHT22;48368;53.406;6.214;2024-01-15T13:13:14;4.40;99.90
62339;DHT22;48368;53.406;6.214;2024-01-15T13:15:40;4.30;99.90
62339;DHT22;48368;53.406;6.214;2024-01-15T13:18:06;4.10;99.90
62339;DHT22;48368;53.406;6.214;2024-01-15T13:20:32;3.90;99.90
62339;DHT22;48368;53.406;6.214;2024-01-15T13:22:57;3.80;99.90
62339;DHT22;48368;53.406;6.214;2024-01-15T13:25:23;3.80;99.90
62339;DHT22;48368;53.406;6.214;2024-01-15T13:27:50;3.70;99.90
62339;DHT22;48368;53.406;6.214;2024-01-15T13:30:15;3.70;99.90
62339;DHT22;48368;53.406;6.214;2024-01-15T13:32:41;3.60;99.90
62339;DHT22;48368;53.406;6.214;2024-01-15T13:35:07;3.60;99.90
62339;DHT22;48368;53.406;6.214;2024-01-15T13:37:35;3.50;99.90
62339;DHT22;48368;53.406;6.214;2024-01-15T13:40:02;3.60;99.90
62339;DHT22;48368;53.406;6.214;2024-01-15T13:42:29;3.50;99.90
62339;DHT22;48368;53.406;6.214;2024-01-15T13:44:54;3.50;99.90
62339;DHT22;48368;53.406;6.214;2024-01-15T13:47:20;3.50;99.90
62339;DHT22;48368;53.406;6.214;2024-01-15T13:49:46;3.50;99.90
62339;DHT22;48368;53.406;6.214;2024-01-15T13:52:11;3.50;99.90
62339;DHT22;48368;53.406;6.214;2024-01-15T13:54:38;3.40;99.90
62339;DHT22;48368;53.406;6.214;2024-01-15T13:57:04;3.40;99.90
62339;DHT22;48368;53.406;6.214;2024-01-15T13:59:32;3.40;99.90
62339;DHT22;48368;53.406;6.214;2024-01-15T14:02:00;3.50;99.90
62339;DHT22;48368;53.406;6.214;2024-01-15T14:04:26;3.50;99.90
62339;DHT22;48368;53.406;6.214;2024-01-15T14:06:52;3.50;99.90
62339;DHT22;48368;53.406;6.214;2024-01-15T14:09:19;3.60;99.90
62339;DHT22;48368;53.406;6.214;2024-01-15T14:11:48;3.70;99.90
62339;DHT22;48368;53.406;6.214;2024-01-15T14:14:14;3.80;99.90
62339;DHT22;48368;53.406;6.214;2024-01-15T14:16:40;3.80;99.90
62339;DHT22;48368;53.406;6.214;2024-01-15T14:19:05;3.80;99.90
62339;DHT22;48368;53.406;6.214;2024-01-15T14:21:35;3.60;99.90
62339;DHT22;48368;53.406;6.214;2024-01-15T14:24:01;3.70;99.90
62339;DHT22;48368;53.406;6.214;2024-01-15T14:26:26;3.70;99.90
62339;DHT22;48368;53.406;6.214;2024-01-15T14:28:56;3.60;99.90
62339;DHT22;48368;53.406;6.214;2024-01-15T14:31:21;3.60;99.90
62339;DHT22;48368;53.406;6.214;2024-01-15T14:33:47;3.50;99.90
62339;DHT22;48368;53.406;6.214;2024-01-15T14:36:12;3.50;99.90
62339;DHT22;48368;53.406;6.214;2024-01-15T14:38:38;3.50;99.90
62339;DHT22;48368;53.406;6.214;2024-01-15T14:41:04;3.50;99.90
62339;DHT22;48368;53.406;6.214;2024-01-15T14:43:29;3.50;99.90
62339;DHT22;48368;53.406;6.214;2024-01-15T14:45:58;3.50;99.90
62339;DHT22;48368;53.406;6.214;2024-01-15T14:48:23;3.60;99.90
62339;DHT22;48368;53.406;6.214;2024-01-15T14:50:50;3.60;99.90
62339;DHT22;48368;53.406;6.214;2024-01-15T14:53:16;3.60;99.90
62339;DHT22;48368;53.406;6.214;2024-01-15T14:55:43;3.60;99.90
62339;DHT22;48368;53.406;6.214;2024-01-15T14:58:08;3.60;99.90
62339;DHT22;48368;53.406;6.214;2024-01-15T15:00:34;3.60;99.90
62339;DHT22;48368;53.406;6.214;2024-01-15T15:03:00;3.60;99.90
62339;DHT22;48368;53.406;6.214;2024-01-15T15:05:25;3.60;99.90
62339;DHT22;48368;53.406;6.214;2024-01-15T15:07:52;3.60;99.90
62339;DHT22;48368;53.406;6.214;2024-01-15T15:10:18;3.70;99.90
62339;DHT22;48368;53.406;6.214;2024-01-15T15:12:44;3.70;99.90
62339;DHT22;48368;53.406;6.214;2024-01-15T15:15:09;3.70;99.90
62339;DHT22;48368;53.406;6.214;2024-01-15T15:17:37;3.70;99.90
62339;DHT22;48368;53.406;6.214;2024-01-15T15:20:04;3.60;99.90
62339;DHT22;48368;53.406;6.214;2024-01-15T15:22:30;3.40;99.90
62339;DHT22;48368;53.406;6.214;2024-01-15T15:24:56;3.40;99.90
62339;DHT22;48368;53.406;6.214;2024-01-15T15:27:22;3.30;99.90
62339;DHT22;48368;53.406;6.214;2024-01-15T15:29:50;3.30;99.90
62339;DHT22;48368;53.406;6.214;2024-01-15T15:32:16;3.40;99.90
62339;DHT22;48368;53.406;6.214;2024-01-15T15:34:41;3.50;99.90
62339;DHT22;48368;53.406;6.214;2024-01-15T15:37:07;3.50;99.90
62339;DHT22;48368;53.406;6.214;2024-01-15T15:39:33;3.50;99.90
62339;DHT22;48368;53.406;6.214;2024-01-15T15:41:58;3.40;99.90
62339;DHT22;48368;53.406;6.214;2024-01-15T15:44:24;3.30;99.90
62339;DHT22;48368;53.406;6.214;2024-01-15T15:46:50;3.20;99.90
62339;DHT22;48368;53.406;6.214;2024-01-15T15:49:15;3.10;99.90
62339;DHT22;48368;53.406;6.214;2024-01-15T15:51:41;2.90;99.90